Urb Luna Llena, Puerto Rico
Current Conditions -  °F | °C
As of 2:56 AM on Thursday 18 Dec 2014 (Local Time) from TJSJ Reporting Station
Scattered Clouds Scattered Clouds  
Wind Chill: 77°   Ceiling: Unl
Heat Index: 79°   Visibility: 10mi
Dew Point: 66°   Wind: 10mph
Humidity: 69%   Direction: 10°N
Pressure: 30"   Gusts: NA
Location:  18.3754°N, 66.0577°W
Report Text: TJSJ 180656Z 01009KT 10SM SCT060 25/19 A3000 RMK AO2 SLP159 T02500189
Loading
Personal Weather Stations






























Interactive Weather Map New forecast layout! Learn more

10-Day Weather Forecast

Advertisements
Track Severe Weather on mobile